sensor_id;sensor_type;location;lat;lon;timestamp;P1;durP1;ratioP1;P2;durP2;ratioP2
63346;SDS011;49472;49.880;8.650;2022-10-16T00:01:17;11.50;;;10.40;;
63346;SDS011;49472;49.880;8.650;2022-10-16T00:03:44;10.33;;;9.60;;
63346;SDS011;49472;49.880;8.650;2022-10-16T00:06:11;11.10;;;10.30;;
63346;SDS011;49472;49.880;8.650;2022-10-16T00:08:38;10.33;;;9.73;;
63346;SDS011;49472;49.880;8.650;2022-10-16T00:11:05;11.30;;;10.60;;
63346;SDS011;49472;49.880;8.650;2022-10-16T00:13:32;11.83;;;10.70;;
63346;SDS011;49472;49.880;8.650;2022-10-16T00:15:59;11.57;;;10.80;;
63346;SDS011;49472;49.880;8.650;2022-10-16T00:18:26;10.40;;;9.53;;
63346;SDS011;49472;49.880;8.650;2022-10-16T00:20:52;10.53;;;9.87;;
63346;SDS011;49472;49.880;8.650;2022-10-16T00:23:17;11.93;;;10.80;;
63346;SDS011;49472;49.880;8.650;2022-10-16T00:25:43;10.60;;;10.00;;
63346;SDS011;49472;49.880;8.650;2022-10-16T00:28:08;10.70;;;10.10;;
63346;SDS011;49472;49.880;8.650;2022-10-16T00:30:36;11.17;;;10.37;;
63346;SDS011;49472;49.880;8.650;2022-10-16T00:33:03;10.50;;;9.67;;
63346;SDS011;49472;49.880;8.650;2022-10-16T00:35:28;10.00;;;9.50;;
63346;SDS011;49472;49.880;8.650;2022-10-16T00:37:54;10.50;;;9.93;;
63346;SDS011;49472;49.880;8.650;2022-10-16T00:40:19;11.20;;;10.50;;
63346;SDS011;49472;49.880;8.650;2022-10-16T00:42:44;11.07;;;9.90;;
63346;SDS011;49472;49.880;8.650;2022-10-16T00:45:10;11.53;;;10.83;;
63346;SDS011;49472;49.880;8.650;2022-10-16T00:47:36;10.77;;;10.17;;
63346;SDS011;49472;49.880;8.650;2022-10-16T00:50:51;11.00;;;10.40;;
63346;SDS011;49472;49.880;8.650;2022-10-16T00:52:59;11.20;;;10.50;;
63346;SDS011;49472;49.880;8.650;2022-10-16T00:55:26;10.93;;;10.40;;
63346;SDS011;49472;49.880;8.650;2022-10-16T00:57:54;11.70;;;11.00;;
63346;SDS011;49472;49.880;8.650;2022-10-16T01:00:23;11.43;;;10.83;;
63346;SDS011;49472;49.880;8.650;2022-10-16T01:02:57;11.77;;;10.83;;
63346;SDS011;49472;49.880;8.650;2022-10-16T01:05:36;11.97;;;10.90;;
63346;SDS011;49472;49.880;8.650;2022-10-16T01:08:10;11.17;;;10.57;;
63346;SDS011;49472;49.880;8.650;2022-10-16T01:10:45;10.90;;;10.40;;
63346;SDS011;49472;49.880;8.650;2022-10-16T01:13:27;11.90;;;11.00;;
63346;SDS011;49472;49.880;8.650;2022-10-16T01:16:07;12.10;;;11.50;;
63346;SDS011;49472;49.880;8.650;2022-10-16T01:18:41;11.83;;;10.90;;
63346;SDS011;49472;49.880;8.650;2022-10-16T01:21:22;11.70;;;11.00;;
63346;SDS011;49472;49.880;8.650;2022-10-16T01:23:56;11.60;;;10.80;;
63346;SDS011;49472;49.880;8.650;2022-10-16T01:26:42;11.57;;;10.87;;
63346;SDS011;49472;49.880;8.650;2022-10-16T01:31:59;12.33;;;11.63;;
63346;SDS011;49472;49.880;8.650;2022-10-16T01:34:32;11.40;;;10.70;;
63346;SDS011;49472;49.880;8.650;2022-10-16T01:37:02;11.40;;;10.80;;
63346;SDS011;49472;49.880;8.650;2022-10-16T01:39:35;11.03;;;10.43;;
63346;SDS011;49472;49.880;8.650;2022-10-16T01:42:08;10.67;;;10.20;;
63346;SDS011;49472;49.880;8.650;2022-10-16T01:44:38;11.87;;;11.20;;
63346;SDS011;49472;49.880;8.650;2022-10-16T01:47:07;11.93;;;11.23;;
63346;SDS011;49472;49.880;8.650;2022-10-16T01:49:36;11.40;;;10.80;;
63346;SDS011;49472;49.880;8.650;2022-10-16T01:52:05;11.73;;;11.00;;
63346;SDS011;49472;49.880;8.650;2022-10-16T01:54:33;10.83;;;10.33;;
63346;SDS011;49472;49.880;8.650;2022-10-16T01:57:01;11.20;;;10.60;;
63346;SDS011;49472;49.880;8.650;2022-10-16T01:59:31;11.60;;;10.90;;
63346;SDS011;49472;49.880;8.650;2022-10-16T02:01:59;11.60;;;10.90;;
63346;SDS011;49472;49.880;8.650;2022-10-16T02:06:53;11.83;;;11.00;;
63346;SDS011;49472;49.880;8.650;2022-10-16T02:09:19;11.93;;;11.13;;
63346;SDS011;49472;49.880;8.650;2022-10-16T02:11:44;11.73;;;11.13;;
63346;SDS011;49472;49.880;8.650;2022-10-16T02:14:10;12.40;;;11.50;;
63346;SDS011;49472;49.880;8.650;2022-10-16T02:16:36;11.97;;;11.27;;
63346;SDS011;49472;49.880;8.650;2022-10-16T02:19:07;11.73;;;11.00;;
63346;SDS011;49472;49.880;8.650;2022-10-16T02:21:35;12.30;;;11.60;;
63346;SDS011;49472;49.880;8.650;2022-10-16T02:27:05;12.90;;;12.00;;
63346;SDS011;49472;49.880;8.650;2022-10-16T02:29:33;12.63;;;11.70;;
63346;SDS011;49472;49.880;8.650;2022-10-16T02:32:03;11.57;;;10.97;;
63346;SDS011;49472;49.880;8.650;2022-10-16T02:34:31;12.20;;;11.30;;
63346;SDS011;49472;49.880;8.650;2022-10-16T02:36:58;13.20;;;12.23;;
63346;SDS011;49472;49.880;8.650;2022-10-16T02:39:27;12.37;;;11.57;;
63346;SDS011;49472;49.880;8.650;2022-10-16T02:41:53;13.37;;;12.57;;
63346;SDS011;49472;49.880;8.650;2022-10-16T02:44:19;12.70;;;11.80;;
63346;SDS011;49472;49.880;8.650;2022-10-16T02:46:44;12.90;;;12.03;;
63346;SDS011;49472;49.880;8.650;2022-10-16T02:49:10;13.40;;;12.50;;
63346;SDS011;49472;49.880;8.650;2022-10-16T02:51:35;12.27;;;11.57;;
63346;SDS011;49472;49.880;8.650;2022-10-16T02:54:01;14.63;;;12.53;;
63346;SDS011;49472;49.880;8.650;2022-10-16T02:56:27;13.97;;;12.77;;
63346;SDS011;49472;49.880;8.650;2022-10-16T02:58:52;13.63;;;12.60;;
63346;SDS011;49472;49.880;8.650;2022-10-16T03:01:17;25.43;;;14.10;;
63346;SDS011;49472;49.880;8.650;2022-10-16T03:03:42;14.20;;;13.20;;
63346;SDS011;49472;49.880;8.650;2022-10-16T03:06:08;14.90;;;13.73;;
63346;SDS011;49472;49.880;8.650;2022-10-16T03:08:33;14.37;;;13.13;;
63346;SDS011;49472;49.880;8.650;2022-10-16T03:10:59;14.60;;;13.40;;
63346;SDS011;49472;49.880;8.650;2022-10-16T03:13:24;14.30;;;13.20;;
63346;SDS011;49472;49.880;8.650;2022-10-16T03:15:49;14.70;;;13.40;;
63346;SDS011;49472;49.880;8.650;2022-10-16T03:18:15;13.40;;;12.60;;
63346;SDS011;49472;49.880;8.650;2022-10-16T03:20:41;14.77;;;13.57;;
63346;SDS011;49472;49.880;8.650;2022-10-16T03:23:07;13.33;;;12.13;;
63346;SDS011;49472;49.880;8.650;2022-10-16T03:25:33;14.50;;;12.90;;
63346;SDS011;49472;49.880;8.650;2022-10-16T03:27:58;14.03;;;12.93;;
63346;SDS011;49472;49.880;8.650;2022-10-16T03:30:23;14.13;;;13.00;;
63346;SDS011;49472;49.880;8.650;2022-10-16T03:32:49;13.90;;;12.70;;
63346;SDS011;49472;49.880;8.650;2022-10-16T03:35:18;14.30;;;13.00;;
63346;SDS011;49472;49.880;8.650;2022-10-16T03:37:44;14.10;;;13.10;;
63346;SDS011;49472;49.880;8.650;2022-10-16T03:40:09;15.07;;;13.53;;
63346;SDS011;49472;49.880;8.650;2022-10-16T03:42:35;14.40;;;13.23;;
63346;SDS011;49472;49.880;8.650;2022-10-16T03:45:00;14.90;;;13.67;;
63346;SDS011;49472;49.880;8.650;2022-10-16T03:47:25;14.87;;;13.57;;
63346;SDS011;49472;49.880;8.650;2022-10-16T03:49:50;15.03;;;13.80;;
63346;SDS011;49472;49.880;8.650;2022-10-16T03:52:16;14.80;;;13.30;;
63346;SDS011;49472;49.880;8.650;2022-10-16T03:54:42;15.23;;;13.93;;
63346;SDS011;49472;49.880;8.650;2022-10-16T03:57:07;19.17;;;14.13;;
63346;SDS011;49472;49.880;8.650;2022-10-16T03:59:32;14.47;;;13.20;;
63346;SDS011;49472;49.880;8.650;2022-10-16T04:01:58;15.17;;;13.97;;
63346;SDS011;49472;49.880;8.650;2022-10-16T04:04:23;14.67;;;13.47;;
63346;SDS011;49472;49.880;8.650;2022-10-16T04:06:49;15.30;;;14.30;;
63346;SDS011;49472;49.880;8.650;2022-10-16T04:09:15;15.80;;;13.93;;
63346;SDS011;49472;49.880;8.650;2022-10-16T04:11:40;15.20;;;13.90;;
63346;SDS011;49472;49.880;8.650;2022-10-16T04:14:05;14.90;;;13.60;;
63346;SDS011;49472;49.880;8.650;2022-10-16T04:16:31;15.00;;;13.67;;
63346;SDS011;49472;49.880;8.650;2022-10-16T04:18:56;17.57;;;13.90;;
63346;SDS011;49472;49.880;8.650;2022-10-16T04:21:21;15.67;;;14.47;;
63346;SDS011;49472;49.880;8.650;2022-10-16T04:23:47;14.80;;;13.60;;
63346;SDS011;49472;49.880;8.650;2022-10-16T04:26:12;22.03;;;14.10;;
63346;SDS011;49472;49.880;8.650;2022-10-16T04:28:38;15.00;;;13.90;;
63346;SDS011;49472;49.880;8.650;2022-10-16T04:31:04;15.20;;;13.63;;
63346;SDS011;49472;49.880;8.650;2022-10-16T04:33:29;18.40;;;13.70;;
63346;SDS011;49472;49.880;8.650;2022-10-16T04:35:58;15.00;;;13.83;;
63346;SDS011;49472;49.880;8.650;2022-10-16T04:38:25;15.63;;;14.30;;
63346;SDS011;49472;49.880;8.650;2022-10-16T04:40:51;14.47;;;13.23;;
63346;SDS011;49472;49.880;8.650;2022-10-16T04:43:17;19.73;;;13.90;;
63346;SDS011;49472;49.880;8.650;2022-10-16T04:45:42;13.53;;;12.57;;
63346;SDS011;49472;49.880;8.650;2022-10-16T04:48:08;14.97;;;13.67;;
63346;SDS011;49472;49.880;8.650;2022-10-16T04:50:33;14.50;;;13.40;;
63346;SDS011;49472;49.880;8.650;2022-10-16T04:52:58;16.50;;;15.07;;
63346;SDS011;49472;49.880;8.650;2022-10-16T04:55:24;16.00;;;14.80;;
63346;SDS011;49472;49.880;8.650;2022-10-16T04:57:49;15.33;;;14.10;;
63346;SDS011;49472;49.880;8.650;2022-10-16T05:00:15;15.37;;;14.27;;
63346;SDS011;49472;49.880;8.650;2022-10-16T05:02:40;16.77;;;14.63;;
63346;SDS011;49472;49.880;8.650;2022-10-16T05:05:05;15.47;;;14.27;;
63346;SDS011;49472;49.880;8.650;2022-10-16T05:07:31;16.40;;;15.00;;
63346;SDS011;49472;49.880;8.650;2022-10-16T05:09:57;15.90;;;14.60;;
63346;SDS011;49472;49.880;8.650;2022-10-16T05:12:22;15.77;;;14.40;;
63346;SDS011;49472;49.880;8.650;2022-10-16T05:14:48;15.10;;;13.97;;
63346;SDS011;49472;49.880;8.650;2022-10-16T05:17:13;15.50;;;14.40;;
63346;SDS011;49472;49.880;8.650;2022-10-16T05:19:39;16.03;;;14.60;;
63346;SDS011;49472;49.880;8.650;2022-10-16T05:22:04;16.53;;;14.60;;
63346;SDS011;49472;49.880;8.650;2022-10-16T05:24:29;17.37;;;15.57;;
63346;SDS011;49472;49.880;8.650;2022-10-16T05:26:55;16.07;;;14.80;;
63346;SDS011;49472;49.880;8.650;2022-10-16T05:29:20;16.33;;;15.10;;
63346;SDS011;49472;49.880;8.650;2022-10-16T05:31:46;16.73;;;15.27;;
63346;SDS011;49472;49.880;8.650;2022-10-16T05:34:11;16.70;;;14.93;;
63346;SDS011;49472;49.880;8.650;2022-10-16T05:36:36;16.47;;;15.00;;
63346;SDS011;49472;49.880;8.650;2022-10-16T05:39:02;17.37;;;15.70;;
63346;SDS011;49472;49.880;8.650;2022-10-16T05:41:27;16.83;;;15.63;;
63346;SDS011;49472;49.880;8.650;2022-10-16T05:43:53;17.90;;;16.23;;
63346;SDS011;49472;49.880;8.650;2022-10-16T05:46:18;15.63;;;14.27;;
63346;SDS011;49472;49.880;8.650;2022-10-16T05:48:44;15.10;;;14.13;;
63346;SDS011;49472;49.880;8.650;2022-10-16T05:51:10;15.60;;;14.57;;
63346;SDS011;49472;49.880;8.650;2022-10-16T05:53:37;15.70;;;14.20;;
63346;SDS011;49472;49.880;8.650;2022-10-16T05:56:04;16.37;;;14.47;;
63346;SDS011;49472;49.880;8.650;2022-10-16T05:58:32;16.27;;;14.47;;
63346;SDS011;49472;49.880;8.650;2022-10-16T06:00:59;15.33;;;14.03;;
63346;SDS011;49472;49.880;8.650;2022-10-16T06:03:29;15.07;;;14.07;;
63346;SDS011;49472;49.880;8.650;2022-10-16T06:05:54;15.10;;;13.77;;
63346;SDS011;49472;49.880;8.650;2022-10-16T06:08:20;16.17;;;14.50;;
63346;SDS011;49472;49.880;8.650;2022-10-16T06:10:47;15.37;;;14.30;;
63346;SDS011;49472;49.880;8.650;2022-10-16T06:13:13;15.40;;;14.10;;
63346;SDS011;49472;49.880;8.650;2022-10-16T06:15:39;15.83;;;14.00;;
63346;SDS011;49472;49.880;8.650;2022-10-16T06:18:09;15.20;;;14.07;;
63346;SDS011;49472;49.880;8.650;2022-10-16T06:20:35;15.10;;;14.00;;
63346;SDS011;49472;49.880;8.650;2022-10-16T06:23:00;14.73;;;13.77;;
63346;SDS011;49472;49.880;8.650;2022-10-16T06:25:26;15.33;;;14.03;;
63346;SDS011;49472;49.880;8.650;2022-10-16T06:27:51;16.13;;;14.93;;
63346;SDS011;49472;49.880;8.650;2022-10-16T06:30:16;15.60;;;14.60;;
63346;SDS011;49472;49.880;8.650;2022-10-16T06:32:41;15.37;;;13.87;;
63346;SDS011;49472;49.880;8.650;2022-10-16T06:35:07;15.93;;;14.50;;
63346;SDS011;49472;49.880;8.650;2022-10-16T06:37:32;15.67;;;14.47;;
63346;SDS011;49472;49.880;8.650;2022-10-16T06:39:57;17.13;;;14.73;;
63346;SDS011;49472;49.880;8.650;2022-10-16T06:42:23;15.90;;;14.63;;
63346;SDS011;49472;49.880;8.650;2022-10-16T06:44:48;15.67;;;14.33;;
63346;SDS011;49472;49.880;8.650;2022-10-16T06:47:13;15.20;;;14.20;;
63346;SDS011;49472;49.880;8.650;2022-10-16T06:49:39;15.70;;;14.50;;
63346;SDS011;49472;49.880;8.650;2022-10-16T06:52:04;14.77;;;13.73;;
63346;SDS011;49472;49.880;8.650;2022-10-16T06:54:30;16.43;;;13.97;;
63346;SDS011;49472;49.880;8.650;2022-10-16T06:56:55;15.37;;;14.23;;
63346;SDS011;49472;49.880;8.650;2022-10-16T06:59:21;15.80;;;14.37;;
63346;SDS011;49472;49.880;8.650;2022-10-16T07:01:46;15.40;;;14.40;;
63346;SDS011;49472;49.880;8.650;2022-10-16T07:04:12;16.17;;;15.07;;
63346;SDS011;49472;49.880;8.650;2022-10-16T07:06:37;16.67;;;14.80;;
63346;SDS011;49472;49.880;8.650;2022-10-16T07:09:04;17.53;;;16.10;;
63346;SDS011;49472;49.880;8.650;2022-10-16T07:11:31;15.53;;;14.40;;
63346;SDS011;49472;49.880;8.650;2022-10-16T07:13:57;15.53;;;14.57;;
63346;SDS011;49472;49.880;8.650;2022-10-16T07:16:23;16.60;;;14.83;;
63346;SDS011;49472;49.880;8.650;2022-10-16T07:18:53;14.80;;;13.87;;
63346;SDS011;49472;49.880;8.650;2022-10-16T07:21:23;15.13;;;14.03;;
63346;SDS011;49472;49.880;8.650;2022-10-16T07:23:54;15.60;;;14.47;;
63346;SDS011;49472;49.880;8.650;2022-10-16T07:26:20;15.50;;;14.30;;
63346;SDS011;49472;49.880;8.650;2022-10-16T07:28:47;15.53;;;14.13;;
63346;SDS011;49472;49.880;8.650;2022-10-16T07:31:15;15.10;;;13.90;;
63346;SDS011;49472;49.880;8.650;2022-10-16T07:33:42;15.27;;;14.17;;
63346;SDS011;49472;49.880;8.650;2022-10-16T07:36:09;16.20;;;14.60;;
63346;SDS011;49472;49.880;8.650;2022-10-16T07:38:35;14.70;;;13.60;;
63346;SDS011;49472;49.880;8.650;2022-10-16T07:41:01;14.23;;;13.23;;
63346;SDS011;49472;49.880;8.650;2022-10-16T07:43:28;16.37;;;14.20;;
63346;SDS011;49472;49.880;8.650;2022-10-16T07:45:54;15.10;;;14.00;;
63346;SDS011;49472;49.880;8.650;2022-10-16T07:48:20;15.60;;;14.17;;
63346;SDS011;49472;49.880;8.650;2022-10-16T07:50:46;15.30;;;13.47;;
63346;SDS011;49472;49.880;8.650;2022-10-16T07:53:11;14.40;;;13.40;;
63346;SDS011;49472;49.880;8.650;2022-10-16T07:55:37;14.07;;;13.10;;
63346;SDS011;49472;49.880;8.650;2022-10-16T07:58:03;14.83;;;13.80;;
63346;SDS011;49472;49.880;8.650;2022-10-16T08:00:29;14.63;;;13.40;;
63346;SDS011;49472;49.880;8.650;2022-10-16T08:02:56;15.00;;;13.77;;
63346;SDS011;49472;49.880;8.650;2022-10-16T08:05:25;15.57;;;14.07;;
63346;SDS011;49472;49.880;8.650;2022-10-16T08:07:54;15.17;;;13.70;;
63346;SDS011;49472;49.880;8.650;2022-10-16T08:10:21;15.67;;;14.03;;
63346;SDS011;49472;49.880;8.650;2022-10-16T08:12:48;15.80;;;13.97;;
63346;SDS011;49472;49.880;8.650;2022-10-16T08:15:13;15.13;;;13.97;;
63346;SDS011;49472;49.880;8.650;2022-10-16T08:17:38;15.47;;;14.47;;
63346;SDS011;49472;49.880;8.650;2022-10-16T08:20:03;14.40;;;13.60;;
63346;SDS011;49472;49.880;8.650;2022-10-16T08:22:29;14.90;;;13.80;;
63346;SDS011;49472;49.880;8.650;2022-10-16T08:24:55;14.83;;;13.73;;
63346;SDS011;49472;49.880;8.650;2022-10-16T08:27:20;15.00;;;13.80;;
63346;SDS011;49472;49.880;8.650;2022-10-16T08:29:45;12.80;;;11.63;;
63346;SDS011;49472;49.880;8.650;2022-10-16T08:32:11;10.83;;;10.13;;
63346;SDS011;49472;49.880;8.650;2022-10-16T08:34:36;10.60;;;9.60;;
63346;SDS011;49472;49.880;8.650;2022-10-16T08:37:02;8.23;;;7.53;;
63346;SDS011;49472;49.880;8.650;2022-10-16T08:39:27;13.93;;;4.40;;
63346;SDS011;49472;49.880;8.650;2022-10-16T08:50:08;5.40;;;4.30;;
63346;SDS011;49472;49.880;8.650;2022-10-16T08:52:38;5.23;;;4.20;;
63346;SDS011;49472;49.880;8.650;2022-10-16T08:55:06;4.07;;;3.73;;
63346;SDS011;49472;49.880;8.650;2022-10-16T08:57:41;6.43;;;4.73;;
63346;SDS011;49472;49.880;8.650;2022-10-16T09:00:12;4.60;;;3.90;;
63346;SDS011;49472;49.880;8.650;2022-10-16T09:02:39;6.47;;;4.77;;
63346;SDS011;49472;49.880;8.650;2022-10-16T09:07:57;4.77;;;3.80;;
63346;SDS011;49472;49.880;8.650;2022-10-16T09:13:17;8.83;;;4.40;;
63346;SDS011;49472;49.880;8.650;2022-10-16T09:15:59;5.03;;;3.50;;
63346;SDS011;49472;49.880;8.650;2022-10-16T09:18:29;8.30;;;4.40;;
63346;SDS011;49472;49.880;8.650;2022-10-16T09:21:07;12.47;;;4.43;;
63346;SDS011;49472;49.880;8.650;2022-10-16T09:23:46;4.57;;;4.17;;
63346;SDS011;49472;49.880;8.650;2022-10-16T09:26:13;9.03;;;5.10;;
63346;SDS011;49472;49.880;8.650;2022-10-16T09:28:39;5.40;;;4.80;;
63346;SDS011;49472;49.880;8.650;2022-10-16T09:31:05;5.90;;;4.30;;
63346;SDS011;49472;49.880;8.650;2022-10-16T09:33:33;12.83;;;5.00;;
63346;SDS011;49472;49.880;8.650;2022-10-16T09:36:02;5.23;;;4.83;;
63346;SDS011;49472;49.880;8.650;2022-10-16T09:38:31;5.53;;;5.13;;
63346;SDS011;49472;49.880;8.650;2022-10-16T09:40:58;6.63;;;5.20;;
63346;SDS011;49472;49.880;8.650;2022-10-16T09:43:26;6.67;;;5.80;;
63346;SDS011;49472;49.880;8.650;2022-10-16T09:48:34;7.17;;;6.57;;
63346;SDS011;49472;49.880;8.650;2022-10-16T09:51:05;12.30;;;8.37;;
63346;SDS011;49472;49.880;8.650;2022-10-16T09:53:42;9.53;;;8.83;;
63346;SDS011;49472;49.880;8.650;2022-10-16T09:56:10;10.13;;;9.33;;
63346;SDS011;49472;49.880;8.650;2022-10-16T09:58:41;10.47;;;9.57;;
63346;SDS011;49472;49.880;8.650;2022-10-16T10:01:13;10.53;;;9.73;;
63346;SDS011;49472;49.880;8.650;2022-10-16T10:03:40;12.03;;;11.03;;
63346;SDS011;49472;49.880;8.650;2022-10-16T10:06:16;12.97;;;12.07;;
63346;SDS011;49472;49.880;8.650;2022-10-16T10:11:52;16.60;;;12.23;;
63346;SDS011;49472;49.880;8.650;2022-10-16T10:14:35;14.53;;;13.63;;
63346;SDS011;49472;49.880;8.650;2022-10-16T10:19:30;15.70;;;14.70;;
63346;SDS011;49472;49.880;8.650;2022-10-16T10:22:13;15.00;;;14.10;;
63346;SDS011;49472;49.880;8.650;2022-10-16T10:24:54;17.20;;;15.90;;
63346;SDS011;49472;49.880;8.650;2022-10-16T10:33:08;16.53;;;15.53;;
63346;SDS011;49472;49.880;8.650;2022-10-16T10:38:20;17.03;;;15.77;;
63346;SDS011;49472;49.880;8.650;2022-10-16T10:40:54;15.80;;;14.80;;
63346;SDS011;49472;49.880;8.650;2022-10-16T10:43:48;16.90;;;15.80;;
63346;SDS011;49472;49.880;8.650;2022-10-16T10:46:18;16.40;;;15.40;;
63346;SDS011;49472;49.880;8.650;2022-10-16T10:54:54;17.63;;;16.53;;
63346;SDS011;49472;49.880;8.650;2022-10-16T10:57:29;17.80;;;16.13;;
63346;SDS011;49472;49.880;8.650;2022-10-16T11:00:03;17.43;;;16.33;;
63346;SDS011;49472;49.880;8.650;2022-10-16T11:02:49;17.63;;;16.43;;
63346;SDS011;49472;49.880;8.650;2022-10-16T11:05:28;17.10;;;16.10;;
63346;SDS011;49472;49.880;8.650;2022-10-16T11:08:11;18.30;;;17.00;;
63346;SDS011;49472;49.880;8.650;2022-10-16T11:10:44;16.67;;;15.60;;
63346;SDS011;49472;49.880;8.650;2022-10-16T11:13:15;17.10;;;16.10;;
63346;SDS011;49472;49.880;8.650;2022-10-16T11:15:48;19.03;;;17.20;;
63346;SDS011;49472;49.880;8.650;2022-10-16T11:18:19;19.37;;;17.87;;
63346;SDS011;49472;49.880;8.650;2022-10-16T11:20:53;18.10;;;16.80;;
63346;SDS011;49472;49.880;8.650;2022-10-16T11:23:27;18.30;;;16.60;;
63346;SDS011;49472;49.880;8.650;2022-10-16T11:25:57;17.70;;;16.38;;
63346;SDS011;49472;49.880;8.650;2022-10-16T11:28:27;18.45;;;16.95;;
63346;SDS011;49472;49.880;8.650;2022-10-16T11:36:59;16.27;;;15.27;;
63346;SDS011;49472;49.880;8.650;2022-10-16T11:39:30;16.10;;;15.10;;
63346;SDS011;49472;49.880;8.650;2022-10-16T11:41:59;15.65;;;14.48;;
63346;SDS011;49472;49.880;8.650;2022-10-16T11:49:44;13.93;;;13.10;;
63346;SDS011;49472;49.880;8.650;2022-10-16T11:55:16;13.95;;;13.20;;
63346;SDS011;49472;49.880;8.650;2022-10-16T11:57:54;13.48;;;12.68;;
63346;SDS011;49472;49.880;8.650;2022-10-16T12:00:26;13.95;;;12.60;;
63346;SDS011;49472;49.880;8.650;2022-10-16T12:02:58;13.93;;;12.70;;
63346;SDS011;49472;49.880;8.650;2022-10-16T12:08:12;13.50;;;12.38;;
63346;SDS011;49472;49.880;8.650;2022-10-16T12:10:40;13.23;;;12.32;;
63346;SDS011;49472;49.880;8.650;2022-10-16T12:18:37;14.15;;;13.35;;
63346;SDS011;49472;49.880;8.650;2022-10-16T12:21:03;14.60;;;13.60;;
63346;SDS011;49472;49.880;8.650;2022-10-16T12:23:30;14.57;;;13.77;;
63346;SDS011;49472;49.880;8.650;2022-10-16T12:26:00;14.95;;;14.02;;
63346;SDS011;49472;49.880;8.650;2022-10-16T12:28:31;15.07;;;13.85;;
63346;SDS011;49472;49.880;8.650;2022-10-16T12:30:58;13.95;;;12.95;;
63346;SDS011;49472;49.880;8.650;2022-10-16T12:36:28;13.80;;;13.00;;
63346;SDS011;49472;49.880;8.650;2022-10-16T12:38:56;14.20;;;13.30;;
63346;SDS011;49472;49.880;8.650;2022-10-16T12:41:31;15.15;;;14.10;;
63346;SDS011;49472;49.880;8.650;2022-10-16T12:43:59;15.07;;;14.07;;
63346;SDS011;49472;49.880;8.650;2022-10-16T12:49:04;14.65;;;13.57;;
63346;SDS011;49472;49.880;8.650;2022-10-16T12:54:09;14.30;;;13.40;;
63346;SDS011;49472;49.880;8.650;2022-10-16T13:04:45;14.82;;;13.82;;
63346;SDS011;49472;49.880;8.650;2022-10-16T13:12:15;13.98;;;13.07;;
63346;SDS011;49472;49.880;8.650;2022-10-16T13:29:14;14.73;;;13.82;;
63346;SDS011;49472;49.880;8.650;2022-10-16T13:31:40;18.75;;;14.55;;
63346;SDS011;49472;49.880;8.650;2022-10-16T13:34:11;15.48;;;14.38;;
63346;SDS011;49472;49.880;8.650;2022-10-16T13:36:45;14.95;;;14.05;;
63346;SDS011;49472;49.880;8.650;2022-10-16T13:39:13;14.20;;;13.35;;
63346;SDS011;49472;49.880;8.650;2022-10-16T13:41:40;15.30;;;14.40;;
63346;SDS011;49472;49.880;8.650;2022-10-16T13:44:11;15.07;;;14.18;;
63346;SDS011;49472;49.880;8.650;2022-10-16T13:46:40;15.25;;;14.10;;
63346;SDS011;49472;49.880;8.650;2022-10-16T13:49:12;18.80;;;17.08;;
63346;SDS011;49472;49.880;8.650;2022-10-16T13:51:41;16.70;;;15.23;;
63346;SDS011;49472;49.880;8.650;2022-10-16T13:54:19;14.63;;;13.60;;
63346;SDS011;49472;49.880;8.650;2022-10-16T13:56:44;14.25;;;13.45;;
63346;SDS011;49472;49.880;8.650;2022-10-16T13:59:22;15.13;;;13.70;;
63346;SDS011;49472;49.880;8.650;2022-10-16T14:01:57;15.40;;;14.18;;
63346;SDS011;49472;49.880;8.650;2022-10-16T14:04:31;15.60;;;14.70;;
63346;SDS011;49472;49.880;8.650;2022-10-16T14:06:57;16.08;;;14.60;;
63346;SDS011;49472;49.880;8.650;2022-10-16T14:09:26;15.95;;;14.70;;
63346;SDS011;49472;49.880;8.650;2022-10-16T14:14:29;15.90;;;14.75;;
63346;SDS011;49472;49.880;8.650;2022-10-16T14:17:28;20.98;;;15.05;;
63346;SDS011;49472;49.880;8.650;2022-10-16T14:19:56;15.13;;;14.05;;
63346;SDS011;49472;49.880;8.650;2022-10-16T14:24:58;16.00;;;14.38;;
63346;SDS011;49472;49.880;8.650;2022-10-16T14:27:35;15.65;;;14.20;;
63346;SDS011;49472;49.880;8.650;2022-10-16T14:32:40;15.77;;;14.63;;
63346;SDS011;49472;49.880;8.650;2022-10-16T14:35:24;15.15;;;14.15;;
63346;SDS011;49472;49.880;8.650;2022-10-16T14:37:52;16.63;;;15.38;;
63346;SDS011;49472;49.880;8.650;2022-10-16T14:40:19;15.73;;;14.68;;
63346;SDS011;49472;49.880;8.650;2022-10-16T14:42:48;16.35;;;15.02;;
63346;SDS011;49472;49.880;8.650;2022-10-16T14:45:15;16.08;;;14.88;;
63346;SDS011;49472;49.880;8.650;2022-10-16T14:47:48;15.95;;;14.73;;
63346;SDS011;49472;49.880;8.650;2022-10-16T14:50:19;16.40;;;14.82;;
63346;SDS011;49472;49.880;8.650;2022-10-16T14:52:44;15.32;;;14.20;;
63346;SDS011;49472;49.880;8.650;2022-10-16T14:55:10;15.82;;;14.50;;
63346;SDS011;49472;49.880;8.650;2022-10-16T14:57:36;15.50;;;14.15;;
63346;SDS011;49472;49.880;8.650;2022-10-16T15:00:03;15.80;;;14.57;;
63346;SDS011;49472;49.880;8.650;2022-10-16T15:02:38;19.90;;;15.18;;
63346;SDS011;49472;49.880;8.650;2022-10-16T15:07:42;15.93;;;14.20;;
63346;SDS011;49472;49.880;8.650;2022-10-16T15:10:08;17.20;;;14.02;;
63346;SDS011;49472;49.880;8.650;2022-10-16T15:12:34;15.15;;;14.10;;
63346;SDS011;49472;49.880;8.650;2022-10-16T15:15:00;15.50;;;14.50;;
63346;SDS011;49472;49.880;8.650;2022-10-16T15:17:25;14.40;;;13.40;;
63346;SDS011;49472;49.880;8.650;2022-10-16T15:19:50;15.57;;;14.27;;
63346;SDS011;49472;49.880;8.650;2022-10-16T15:22:16;15.68;;;14.48;;
63346;SDS011;49472;49.880;8.650;2022-10-16T15:24:42;14.75;;;13.68;;
63346;SDS011;49472;49.880;8.650;2022-10-16T15:27:08;15.45;;;14.35;;
63346;SDS011;49472;49.880;8.650;2022-10-16T15:29:33;14.90;;;14.00;;
63346;SDS011;49472;49.880;8.650;2022-10-16T15:31:58;15.25;;;13.88;;
63346;SDS011;49472;49.880;8.650;2022-10-16T15:34:24;14.60;;;13.48;;
63346;SDS011;49472;49.880;8.650;2022-10-16T15:36:49;15.18;;;14.18;;
63346;SDS011;49472;49.880;8.650;2022-10-16T15:39:15;13.80;;;13.00;;
63346;SDS011;49472;49.880;8.650;2022-10-16T15:41:43;13.98;;;13.05;;
63346;SDS011;49472;49.880;8.650;2022-10-16T15:44:09;15.77;;;14.43;;
63346;SDS011;49472;49.880;8.650;2022-10-16T15:46:34;14.55;;;13.75;;
63346;SDS011;49472;49.880;8.650;2022-10-16T15:49:01;15.23;;;14.23;;
63346;SDS011;49472;49.880;8.650;2022-10-16T15:51:26;15.18;;;14.18;;
63346;SDS011;49472;49.880;8.650;2022-10-16T15:53:57;17.40;;;14.50;;
63346;SDS011;49472;49.880;8.650;2022-10-16T15:56:23;16.52;;;15.25;;
63346;SDS011;49472;49.880;8.650;2022-10-16T15:58:50;15.85;;;14.85;;
63346;SDS011;49472;49.880;8.650;2022-10-16T16:01:16;17.15;;;15.50;;
63346;SDS011;49472;49.880;8.650;2022-10-16T16:03:41;15.65;;;14.20;;
63346;SDS011;49472;49.880;8.650;2022-10-16T16:06:07;15.85;;;14.55;;
63346;SDS011;49472;49.880;8.650;2022-10-16T16:08:34;16.25;;;14.95;;
63346;SDS011;49472;49.880;8.650;2022-10-16T16:11:00;14.90;;;13.85;;
63346;SDS011;49472;49.880;8.650;2022-10-16T16:13:35;15.98;;;14.38;;
63346;SDS011;49472;49.880;8.650;2022-10-16T16:16:13;15.52;;;14.43;;
63346;SDS011;49472;49.880;8.650;2022-10-16T16:18:40;16.55;;;15.30;;
63346;SDS011;49472;49.880;8.650;2022-10-16T16:21:06;22.25;;;20.48;;
63346;SDS011;49472;49.880;8.650;2022-10-16T16:23:31;17.88;;;16.25;;